sensor_id;sensor_type;location;lat;lon;timestamp;P1;durP1;ratioP1;P2;durP2;ratioP2
26040;SDS011;13816;53.628;9.950;2024-03-02T00:00:20;28.53;;;17.90;;
26040;SDS011;13816;53.628;9.950;2024-03-02T00:02:49;23.80;;;16.90;;
26040;SDS011;13816;53.628;9.950;2024-03-02T00:05:17;30.57;;;17.60;;
26040;SDS011;13816;53.628;9.950;2024-03-02T00:07:55;22.07;;;16.77;;
26040;SDS011;13816;53.628;9.950;2024-03-02T00:10:25;23.77;;;16.60;;
26040;SDS011;13816;53.628;9.950;2024-03-02T00:12:56;23.90;;;16.47;;
26040;SDS011;13816;53.628;9.950;2024-03-02T00:15:35;23.77;;;16.67;;
26040;SDS011;13816;53.628;9.950;2024-03-02T00:18:12;25.60;;;16.97;;
26040;SDS011;13816;53.628;9.950;2024-03-02T00:20:40;24.67;;;16.30;;
26040;SDS011;13816;53.628;9.950;2024-03-02T00:23:08;24.33;;;17.17;;
26040;SDS011;13816;53.628;9.950;2024-03-02T00:28:04;25.37;;;17.00;;
26040;SDS011;13816;53.628;9.950;2024-03-02T00:33:07;30.70;;;17.40;;
26040;SDS011;13816;53.628;9.950;2024-03-02T00:35:35;25.90;;;17.67;;
26040;SDS011;13816;53.628;9.950;2024-03-02T00:38:06;25.53;;;16.40;;
26040;SDS011;13816;53.628;9.950;2024-03-02T00:40:33;27.23;;;18.87;;
26040;SDS011;13816;53.628;9.950;2024-03-02T00:43:01;25.03;;;17.13;;
26040;SDS011;13816;53.628;9.950;2024-03-02T00:45:30;27.10;;;18.70;;
26040;SDS011;13816;53.628;9.950;2024-03-02T00:47:57;26.07;;;17.63;;
26040;SDS011;13816;53.628;9.950;2024-03-02T00:50:24;22.73;;;17.20;;
26040;SDS011;13816;53.628;9.950;2024-03-02T00:52:55;23.30;;;16.83;;
26040;SDS011;13816;53.628;9.950;2024-03-02T00:55:23;26.00;;;17.70;;
26040;SDS011;13816;53.628;9.950;2024-03-02T00:57:50;24.77;;;17.50;;
26040;SDS011;13816;53.628;9.950;2024-03-02T01:00:18;30.40;;;19.43;;
26040;SDS011;13816;53.628;9.950;2024-03-02T01:02:45;30.03;;;19.40;;
26040;SDS011;13816;53.628;9.950;2024-03-02T01:05:13;23.37;;;17.07;;
26040;SDS011;13816;53.628;9.950;2024-03-02T01:07:40;28.07;;;19.50;;
26040;SDS011;13816;53.628;9.950;2024-03-02T01:10:08;28.57;;;19.63;;
26040;SDS011;13816;53.628;9.950;2024-03-02T01:12:37;30.77;;;21.60;;
26040;SDS011;13816;53.628;9.950;2024-03-02T01:15:04;33.47;;;21.97;;
26040;SDS011;13816;53.628;9.950;2024-03-02T01:17:34;27.90;;;20.63;;
26040;SDS011;13816;53.628;9.950;2024-03-02T01:20:02;31.30;;;21.30;;
26040;SDS011;13816;53.628;9.950;2024-03-02T01:22:29;31.13;;;21.50;;
26040;SDS011;13816;53.628;9.950;2024-03-02T01:24:57;38.33;;;23.80;;
26040;SDS011;13816;53.628;9.950;2024-03-02T01:27:24;36.13;;;23.87;;
26040;SDS011;13816;53.628;9.950;2024-03-02T01:29:52;35.80;;;23.37;;
26040;SDS011;13816;53.628;9.950;2024-03-02T01:32:20;39.70;;;24.10;;
26040;SDS011;13816;53.628;9.950;2024-03-02T01:34:48;41.40;;;25.03;;
26040;SDS011;13816;53.628;9.950;2024-03-02T01:37:15;35.27;;;24.30;;
26040;SDS011;13816;53.628;9.950;2024-03-02T01:39:43;36.57;;;23.63;;
26040;SDS011;13816;53.628;9.950;2024-03-02T01:42:10;38.13;;;23.60;;
26040;SDS011;13816;53.628;9.950;2024-03-02T01:44:39;42.57;;;26.27;;
26040;SDS011;13816;53.628;9.950;2024-03-02T01:47:07;45.30;;;26.17;;
26040;SDS011;13816;53.628;9.950;2024-03-02T01:49:34;41.67;;;25.80;;
26040;SDS011;13816;53.628;9.950;2024-03-02T01:52:02;43.70;;;26.97;;
26040;SDS011;13816;53.628;9.950;2024-03-02T01:54:30;43.50;;;26.10;;
26040;SDS011;13816;53.628;9.950;2024-03-02T01:56:58;41.83;;;25.03;;
26040;SDS011;13816;53.628;9.950;2024-03-02T01:59:25;45.87;;;26.20;;
26040;SDS011;13816;53.628;9.950;2024-03-02T02:01:53;43.30;;;25.70;;
26040;SDS011;13816;53.628;9.950;2024-03-02T02:04:21;44.63;;;27.50;;
26040;SDS011;13816;53.628;9.950;2024-03-02T02:06:53;49.57;;;29.37;;
26040;SDS011;13816;53.628;9.950;2024-03-02T02:09:21;43.50;;;27.70;;
26040;SDS011;13816;53.628;9.950;2024-03-02T02:11:49;52.80;;;28.47;;
26040;SDS011;13816;53.628;9.950;2024-03-02T02:14:17;42.50;;;28.37;;
26040;SDS011;13816;53.628;9.950;2024-03-02T02:16:45;46.90;;;29.13;;
26040;SDS011;13816;53.628;9.950;2024-03-02T02:19:12;42.03;;;27.57;;
26040;SDS011;13816;53.628;9.950;2024-03-02T02:21:43;45.37;;;28.83;;
26040;SDS011;13816;53.628;9.950;2024-03-02T02:24:10;47.53;;;29.07;;
26040;SDS011;13816;53.628;9.950;2024-03-02T02:26:39;44.30;;;29.73;;
26040;SDS011;13816;53.628;9.950;2024-03-02T02:29:10;53.80;;;31.30;;
26040;SDS011;13816;53.628;9.950;2024-03-02T02:31:38;52.17;;;29.70;;
26040;SDS011;13816;53.628;9.950;2024-03-02T02:34:05;45.67;;;28.90;;
26040;SDS011;13816;53.628;9.950;2024-03-02T02:36:33;52.53;;;31.20;;
26040;SDS011;13816;53.628;9.950;2024-03-02T02:39:02;43.80;;;28.00;;
26040;SDS011;13816;53.628;9.950;2024-03-02T02:41:33;47.53;;;30.80;;
26040;SDS011;13816;53.628;9.950;2024-03-02T02:44:00;46.43;;;29.43;;
26040;SDS011;13816;53.628;9.950;2024-03-02T02:46:28;47.00;;;28.83;;
26040;SDS011;13816;53.628;9.950;2024-03-02T02:48:56;51.87;;;30.00;;
26040;SDS011;13816;53.628;9.950;2024-03-02T02:51:23;49.90;;;30.70;;
26040;SDS011;13816;53.628;9.950;2024-03-02T02:53:51;52.73;;;30.13;;
26040;SDS011;13816;53.628;9.950;2024-03-02T02:56:19;50.90;;;30.27;;
26040;SDS011;13816;53.628;9.950;2024-03-02T02:58:46;53.83;;;29.03;;
26040;SDS011;13816;53.628;9.950;2024-03-02T03:01:15;50.43;;;29.87;;
26040;SDS011;13816;53.628;9.950;2024-03-02T03:03:49;48.40;;;28.90;;
26040;SDS011;13816;53.628;9.950;2024-03-02T03:06:18;56.57;;;30.00;;
26040;SDS011;13816;53.628;9.950;2024-03-02T03:09:03;59.47;;;31.20;;
26040;SDS011;13816;53.628;9.950;2024-03-02T03:11:32;48.87;;;29.73;;
26040;SDS011;13816;53.628;9.950;2024-03-02T03:14:06;47.07;;;30.50;;
26040;SDS011;13816;53.628;9.950;2024-03-02T03:16:34;47.03;;;30.07;;
26040;SDS011;13816;53.628;9.950;2024-03-02T03:19:02;51.03;;;30.63;;
26040;SDS011;13816;53.628;9.950;2024-03-02T03:21:30;47.40;;;29.33;;
26040;SDS011;13816;53.628;9.950;2024-03-02T03:23:58;51.77;;;32.17;;
26040;SDS011;13816;53.628;9.950;2024-03-02T03:26:25;54.40;;;30.97;;
26040;SDS011;13816;53.628;9.950;2024-03-02T03:28:53;57.37;;;32.20;;
26040;SDS011;13816;53.628;9.950;2024-03-02T03:31:21;48.33;;;30.40;;
26040;SDS011;13816;53.628;9.950;2024-03-02T03:33:50;46.50;;;29.93;;
26040;SDS011;13816;53.628;9.950;2024-03-02T03:36:18;47.00;;;29.63;;
26040;SDS011;13816;53.628;9.950;2024-03-02T03:38:46;45.20;;;29.50;;
26040;SDS011;13816;53.628;9.950;2024-03-02T03:41:15;45.63;;;30.57;;
26040;SDS011;13816;53.628;9.950;2024-03-02T03:43:42;47.67;;;30.67;;
26040;SDS011;13816;53.628;9.950;2024-03-02T03:46:10;45.53;;;29.77;;
26040;SDS011;13816;53.628;9.950;2024-03-02T03:48:37;42.73;;;27.43;;
26040;SDS011;13816;53.628;9.950;2024-03-02T03:51:05;46.73;;;29.40;;
26040;SDS011;13816;53.628;9.950;2024-03-02T03:53:32;49.03;;;30.10;;
26040;SDS011;13816;53.628;9.950;2024-03-02T03:56:00;42.37;;;28.67;;
26040;SDS011;13816;53.628;9.950;2024-03-02T03:58:27;42.63;;;28.70;;
26040;SDS011;13816;53.628;9.950;2024-03-02T04:00:55;45.23;;;28.37;;
26040;SDS011;13816;53.628;9.950;2024-03-02T04:03:26;43.00;;;28.60;;
26040;SDS011;13816;53.628;9.950;2024-03-02T04:05:54;43.50;;;28.23;;
26040;SDS011;13816;53.628;9.950;2024-03-02T04:08:24;48.27;;;28.03;;
26040;SDS011;13816;53.628;9.950;2024-03-02T04:10:55;46.83;;;29.10;;
26040;SDS011;13816;53.628;9.950;2024-03-02T04:13:23;43.43;;;28.73;;
26040;SDS011;13816;53.628;9.950;2024-03-02T04:20:01;41.30;;;28.00;;
26040;SDS011;13816;53.628;9.950;2024-03-02T04:22:35;45.33;;;28.10;;
26040;SDS011;13816;53.628;9.950;2024-03-02T04:25:03;40.13;;;27.00;;
26040;SDS011;13816;53.628;9.950;2024-03-02T04:27:35;40.10;;;27.60;;
26040;SDS011;13816;53.628;9.950;2024-03-02T04:30:05;42.67;;;27.23;;
26040;SDS011;13816;53.628;9.950;2024-03-02T04:32:36;47.63;;;28.87;;
26040;SDS011;13816;53.628;9.950;2024-03-02T04:35:04;42.50;;;27.80;;
26040;SDS011;13816;53.628;9.950;2024-03-02T04:37:36;45.10;;;27.10;;
26040;SDS011;13816;53.628;9.950;2024-03-02T04:40:06;41.67;;;26.87;;
26040;SDS011;13816;53.628;9.950;2024-03-02T04:42:37;43.03;;;27.70;;
26040;SDS011;13816;53.628;9.950;2024-03-02T04:45:05;47.80;;;28.93;;
26040;SDS011;13816;53.628;9.950;2024-03-02T04:47:32;43.80;;;28.43;;
26040;SDS011;13816;53.628;9.950;2024-03-02T04:50:00;39.97;;;27.47;;
26040;SDS011;13816;53.628;9.950;2024-03-02T04:52:28;41.63;;;28.00;;
26040;SDS011;13816;53.628;9.950;2024-03-02T04:54:55;39.07;;;25.87;;
26040;SDS011;13816;53.628;9.950;2024-03-02T04:57:41;45.83;;;27.57;;
26040;SDS011;13816;53.628;9.950;2024-03-02T05:00:09;40.93;;;27.70;;
26040;SDS011;13816;53.628;9.950;2024-03-02T05:02:37;42.73;;;26.17;;
26040;SDS011;13816;53.628;9.950;2024-03-02T05:05:05;43.07;;;27.60;;
26040;SDS011;13816;53.628;9.950;2024-03-02T05:07:32;51.30;;;28.20;;
26040;SDS011;13816;53.628;9.950;2024-03-02T05:10:03;40.53;;;26.27;;
26040;SDS011;13816;53.628;9.950;2024-03-02T05:12:31;43.07;;;26.90;;
26040;SDS011;13816;53.628;9.950;2024-03-02T05:15:12;39.53;;;27.07;;
26040;SDS011;13816;53.628;9.950;2024-03-02T05:17:42;38.90;;;27.30;;
26040;SDS011;13816;53.628;9.950;2024-03-02T05:20:11;42.00;;;27.50;;
26040;SDS011;13816;53.628;9.950;2024-03-02T05:22:38;45.47;;;28.40;;
26040;SDS011;13816;53.628;9.950;2024-03-02T05:25:06;40.30;;;26.60;;
26040;SDS011;13816;53.628;9.950;2024-03-02T05:27:39;41.80;;;27.70;;
26040;SDS011;13816;53.628;9.950;2024-03-02T05:30:08;41.07;;;25.90;;
26040;SDS011;13816;53.628;9.950;2024-03-02T05:32:36;46.27;;;28.20;;
26040;SDS011;13816;53.628;9.950;2024-03-02T05:35:04;43.07;;;27.50;;
26040;SDS011;13816;53.628;9.950;2024-03-02T05:37:32;44.47;;;27.20;;
26040;SDS011;13816;53.628;9.950;2024-03-02T05:40:00;43.33;;;26.80;;
26040;SDS011;13816;53.628;9.950;2024-03-02T05:42:29;40.73;;;26.87;;
26040;SDS011;13816;53.628;9.950;2024-03-02T05:44:57;35.97;;;25.73;;
26040;SDS011;13816;53.628;9.950;2024-03-02T05:47:24;41.50;;;26.50;;
26040;SDS011;13816;53.628;9.950;2024-03-02T05:49:54;43.33;;;27.00;;
26040;SDS011;13816;53.628;9.950;2024-03-02T05:52:22;36.00;;;26.20;;
26040;SDS011;13816;53.628;9.950;2024-03-02T05:54:50;39.03;;;25.43;;
26040;SDS011;13816;53.628;9.950;2024-03-02T05:57:17;36.97;;;25.10;;
26040;SDS011;13816;53.628;9.950;2024-03-02T06:00:15;36.20;;;24.83;;
26040;SDS011;13816;53.628;9.950;2024-03-02T06:02:44;40.20;;;24.70;;
26040;SDS011;13816;53.628;9.950;2024-03-02T06:05:12;40.13;;;25.47;;
26040;SDS011;13816;53.628;9.950;2024-03-02T06:07:40;42.53;;;25.80;;
26040;SDS011;13816;53.628;9.950;2024-03-02T06:10:08;39.53;;;25.10;;
26040;SDS011;13816;53.628;9.950;2024-03-02T06:12:38;37.30;;;24.07;;
26040;SDS011;13816;53.628;9.950;2024-03-02T06:15:05;35.20;;;23.67;;
26040;SDS011;13816;53.628;9.950;2024-03-02T06:17:34;33.83;;;23.47;;
26040;SDS011;13816;53.628;9.950;2024-03-02T06:20:02;46.60;;;26.40;;
26040;SDS011;13816;53.628;9.950;2024-03-02T06:22:30;35.30;;;24.53;;
26040;SDS011;13816;53.628;9.950;2024-03-02T06:24:58;41.37;;;25.50;;
26040;SDS011;13816;53.628;9.950;2024-03-02T06:27:26;37.00;;;24.63;;
26040;SDS011;13816;53.628;9.950;2024-03-02T06:29:54;41.03;;;25.20;;
26040;SDS011;13816;53.628;9.950;2024-03-02T06:32:22;40.50;;;26.10;;
26040;SDS011;13816;53.628;9.950;2024-03-02T06:34:51;40.73;;;24.90;;
26040;SDS011;13816;53.628;9.950;2024-03-02T06:37:19;39.47;;;25.33;;
26040;SDS011;13816;53.628;9.950;2024-03-02T06:39:47;36.97;;;24.03;;
26040;SDS011;13816;53.628;9.950;2024-03-02T06:42:15;38.17;;;26.03;;
26040;SDS011;13816;53.628;9.950;2024-03-02T06:44:42;36.60;;;25.57;;
26040;SDS011;13816;53.628;9.950;2024-03-02T06:47:10;33.50;;;22.97;;
26040;SDS011;13816;53.628;9.950;2024-03-02T06:49:38;40.03;;;25.30;;
26040;SDS011;13816;53.628;9.950;2024-03-02T06:52:06;34.80;;;24.47;;
26040;SDS011;13816;53.628;9.950;2024-03-02T06:54:33;35.40;;;24.23;;
26040;SDS011;13816;53.628;9.950;2024-03-02T06:57:01;43.40;;;25.33;;
26040;SDS011;13816;53.628;9.950;2024-03-02T06:59:29;35.03;;;25.03;;
26040;SDS011;13816;53.628;9.950;2024-03-02T07:01:56;32.53;;;23.83;;
26040;SDS011;13816;53.628;9.950;2024-03-02T07:04:24;38.33;;;25.07;;
26040;SDS011;13816;53.628;9.950;2024-03-02T07:06:52;37.70;;;25.50;;
26040;SDS011;13816;53.628;9.950;2024-03-02T07:09:20;36.90;;;23.60;;
26040;SDS011;13816;53.628;9.950;2024-03-02T07:11:49;34.30;;;22.40;;
26040;SDS011;13816;53.628;9.950;2024-03-02T07:14:17;43.73;;;25.30;;
26040;SDS011;13816;53.628;9.950;2024-03-02T07:16:45;37.83;;;23.53;;
26040;SDS011;13816;53.628;9.950;2024-03-02T07:19:13;39.23;;;24.70;;
26040;SDS011;13816;53.628;9.950;2024-03-02T07:21:41;36.70;;;23.50;;
26040;SDS011;13816;53.628;9.950;2024-03-02T07:24:09;34.03;;;22.30;;
26040;SDS011;13816;53.628;9.950;2024-03-02T07:26:39;39.80;;;24.83;;
26040;SDS011;13816;53.628;9.950;2024-03-02T07:29:10;33.87;;;23.30;;
26040;SDS011;13816;53.628;9.950;2024-03-02T07:31:38;39.30;;;23.00;;
26040;SDS011;13816;53.628;9.950;2024-03-02T07:34:05;42.60;;;26.70;;
26040;SDS011;13816;53.628;9.950;2024-03-02T07:36:33;40.17;;;24.53;;
26040;SDS011;13816;53.628;9.950;2024-03-02T07:39:01;35.97;;;23.30;;
26040;SDS011;13816;53.628;9.950;2024-03-02T07:41:28;36.37;;;23.97;;
26040;SDS011;13816;53.628;9.950;2024-03-02T07:43:56;32.67;;;22.43;;
26040;SDS011;13816;53.628;9.950;2024-03-02T07:46:23;39.00;;;24.27;;
26040;SDS011;13816;53.628;9.950;2024-03-02T07:48:51;34.13;;;23.57;;
26040;SDS011;13816;53.628;9.950;2024-03-02T07:51:19;34.63;;;23.27;;
26040;SDS011;13816;53.628;9.950;2024-03-02T07:53:47;34.57;;;22.93;;
26040;SDS011;13816;53.628;9.950;2024-03-02T07:56:15;35.47;;;23.50;;
26040;SDS011;13816;53.628;9.950;2024-03-02T07:58:48;35.37;;;24.30;;
26040;SDS011;13816;53.628;9.950;2024-03-02T08:01:16;32.37;;;22.90;;
26040;SDS011;13816;53.628;9.950;2024-03-02T08:03:44;39.60;;;23.37;;
26040;SDS011;13816;53.628;9.950;2024-03-02T08:06:17;37.27;;;23.00;;
26040;SDS011;13816;53.628;9.950;2024-03-02T08:08:48;34.70;;;23.57;;
26040;SDS011;13816;53.628;9.950;2024-03-02T08:11:15;37.17;;;23.30;;
26040;SDS011;13816;53.628;9.950;2024-03-02T08:13:43;39.27;;;22.87;;
26040;SDS011;13816;53.628;9.950;2024-03-02T08:16:11;38.70;;;23.07;;
26040;SDS011;13816;53.628;9.950;2024-03-02T08:18:39;35.07;;;22.50;;
26040;SDS011;13816;53.628;9.950;2024-03-02T08:21:06;33.50;;;22.70;;
26040;SDS011;13816;53.628;9.950;2024-03-02T08:23:35;33.03;;;23.10;;
26040;SDS011;13816;53.628;9.950;2024-03-02T08:26:03;36.60;;;25.27;;
26040;SDS011;13816;53.628;9.950;2024-03-02T08:28:31;41.97;;;23.23;;
26040;SDS011;13816;53.628;9.950;2024-03-02T08:30:59;34.60;;;24.60;;
26040;SDS011;13816;53.628;9.950;2024-03-02T08:33:29;34.60;;;23.47;;
26040;SDS011;13816;53.628;9.950;2024-03-02T08:35:57;32.63;;;23.30;;
26040;SDS011;13816;53.628;9.950;2024-03-02T08:38:25;35.73;;;24.03;;
26040;SDS011;13816;53.628;9.950;2024-03-02T08:40:53;34.93;;;24.17;;
26040;SDS011;13816;53.628;9.950;2024-03-02T08:43:21;34.63;;;23.37;;
26040;SDS011;13816;53.628;9.950;2024-03-02T08:45:49;36.67;;;23.77;;
26040;SDS011;13816;53.628;9.950;2024-03-02T08:48:17;36.30;;;24.40;;
26040;SDS011;13816;53.628;9.950;2024-03-02T08:50:45;33.93;;;23.17;;
26040;SDS011;13816;53.628;9.950;2024-03-02T08:53:12;36.00;;;24.30;;
26040;SDS011;13816;53.628;9.950;2024-03-02T08:55:45;35.90;;;22.90;;
26040;SDS011;13816;53.628;9.950;2024-03-02T08:58:13;35.10;;;23.17;;
26040;SDS011;13816;53.628;9.950;2024-03-02T09:00:41;31.07;;;21.80;;
26040;SDS011;13816;53.628;9.950;2024-03-02T09:03:08;34.83;;;23.20;;
26040;SDS011;13816;53.628;9.950;2024-03-02T09:05:36;31.47;;;22.17;;
26040;SDS011;13816;53.628;9.950;2024-03-02T09:08:04;29.87;;;22.23;;
26040;SDS011;13816;53.628;9.950;2024-03-02T09:10:32;34.50;;;22.70;;
26040;SDS011;13816;53.628;9.950;2024-03-02T09:13:00;32.67;;;22.70;;
26040;SDS011;13816;53.628;9.950;2024-03-02T09:15:27;34.80;;;23.17;;
26040;SDS011;13816;53.628;9.950;2024-03-02T09:17:55;30.30;;;21.43;;
26040;SDS011;13816;53.628;9.950;2024-03-02T09:20:23;29.97;;;21.93;;
26040;SDS011;13816;53.628;9.950;2024-03-02T09:22:50;33.07;;;23.30;;
26040;SDS011;13816;53.628;9.950;2024-03-02T09:25:17;28.17;;;20.63;;
26040;SDS011;13816;53.628;9.950;2024-03-02T09:27:45;36.03;;;23.00;;
26040;SDS011;13816;53.628;9.950;2024-03-02T09:30:13;32.53;;;21.90;;
26040;SDS011;13816;53.628;9.950;2024-03-02T09:32:40;33.00;;;21.97;;
26040;SDS011;13816;53.628;9.950;2024-03-02T09:35:08;30.87;;;22.20;;
26040;SDS011;13816;53.628;9.950;2024-03-02T09:37:35;31.63;;;21.60;;
26040;SDS011;13816;53.628;9.950;2024-03-02T09:40:03;28.17;;;19.70;;
26040;SDS011;13816;53.628;9.950;2024-03-02T09:42:32;32.13;;;21.20;;
26040;SDS011;13816;53.628;9.950;2024-03-02T09:45:00;26.97;;;18.47;;
26040;SDS011;13816;53.628;9.950;2024-03-02T09:47:28;32.13;;;19.83;;
26040;SDS011;13816;53.628;9.950;2024-03-02T09:49:55;29.07;;;20.90;;
26040;SDS011;13816;53.628;9.950;2024-03-02T09:52:23;29.67;;;20.10;;
26040;SDS011;13816;53.628;9.950;2024-03-02T09:54:50;28.47;;;18.70;;
26040;SDS011;13816;53.628;9.950;2024-03-02T09:57:18;26.47;;;19.53;;
26040;SDS011;13816;53.628;9.950;2024-03-02T09:59:46;28.80;;;20.83;;
26040;SDS011;13816;53.628;9.950;2024-03-02T10:02:13;29.70;;;19.17;;
26040;SDS011;13816;53.628;9.950;2024-03-02T10:04:40;27.23;;;19.90;;
26040;SDS011;13816;53.628;9.950;2024-03-02T10:07:15;26.73;;;18.77;;
26040;SDS011;13816;53.628;9.950;2024-03-02T10:09:43;30.20;;;19.07;;
26040;SDS011;13816;53.628;9.950;2024-03-02T10:12:12;26.80;;;17.83;;
26040;SDS011;13816;53.628;9.950;2024-03-02T10:14:40;32.27;;;18.43;;
26040;SDS011;13816;53.628;9.950;2024-03-02T10:17:11;30.33;;;19.77;;
26040;SDS011;13816;53.628;9.950;2024-03-02T10:19:39;26.10;;;18.27;;
26040;SDS011;13816;53.628;9.950;2024-03-02T10:22:07;25.13;;;19.67;;
26040;SDS011;13816;53.628;9.950;2024-03-02T10:24:39;25.73;;;20.00;;
26040;SDS011;13816;53.628;9.950;2024-03-02T10:27:08;26.77;;;18.67;;
26040;SDS011;13816;53.628;9.950;2024-03-02T10:29:36;26.43;;;19.20;;
26040;SDS011;13816;53.628;9.950;2024-03-02T10:32:05;27.80;;;18.60;;
26040;SDS011;13816;53.628;9.950;2024-03-02T10:34:33;26.47;;;17.57;;
26040;SDS011;13816;53.628;9.950;2024-03-02T10:37:00;24.30;;;18.13;;
26040;SDS011;13816;53.628;9.950;2024-03-02T10:39:30;27.13;;;17.77;;
26040;SDS011;13816;53.628;9.950;2024-03-02T10:41:57;25.00;;;17.47;;
26040;SDS011;13816;53.628;9.950;2024-03-02T10:44:25;26.27;;;17.40;;
26040;SDS011;13816;53.628;9.950;2024-03-02T10:46:53;25.47;;;17.30;;
26040;SDS011;13816;53.628;9.950;2024-03-02T10:49:21;23.10;;;16.03;;
26040;SDS011;13816;53.628;9.950;2024-03-02T10:51:50;20.60;;;15.90;;
26040;SDS011;13816;53.628;9.950;2024-03-02T10:54:18;19.90;;;16.20;;
26040;SDS011;13816;53.628;9.950;2024-03-02T10:56:58;23.70;;;16.00;;
26040;SDS011;13816;53.628;9.950;2024-03-02T10:59:33;27.57;;;16.20;;
26040;SDS011;13816;53.628;9.950;2024-03-02T11:02:02;21.37;;;15.33;;
26040;SDS011;13816;53.628;9.950;2024-03-02T11:04:31;23.63;;;16.20;;
26040;SDS011;13816;53.628;9.950;2024-03-02T11:06:59;19.80;;;16.37;;
26040;SDS011;13816;53.628;9.950;2024-03-02T11:09:28;20.60;;;15.03;;
26040;SDS011;13816;53.628;9.950;2024-03-02T11:12:19;22.23;;;14.93;;
26040;SDS011;13816;53.628;9.950;2024-03-02T11:14:46;23.20;;;14.57;;
26040;SDS011;13816;53.628;9.950;2024-03-02T11:17:14;20.47;;;14.00;;
26040;SDS011;13816;53.628;9.950;2024-03-02T11:19:44;21.63;;;14.37;;
26040;SDS011;13816;53.628;9.950;2024-03-02T11:22:12;23.53;;;14.13;;
26040;SDS011;13816;53.628;9.950;2024-03-02T11:24:40;21.17;;;13.57;;
26040;SDS011;13816;53.628;9.950;2024-03-02T11:27:14;18.13;;;13.13;;
26040;SDS011;13816;53.628;9.950;2024-03-02T11:30:02;21.57;;;14.00;;
26040;SDS011;13816;53.628;9.950;2024-03-02T11:32:29;18.30;;;13.27;;
26040;SDS011;13816;53.628;9.950;2024-03-02T11:34:57;18.03;;;12.40;;
26040;SDS011;13816;53.628;9.950;2024-03-02T11:37:24;26.47;;;13.20;;
26040;SDS011;13816;53.628;9.950;2024-03-02T11:39:52;19.50;;;12.97;;
26040;SDS011;13816;53.628;9.950;2024-03-02T11:42:19;18.33;;;12.53;;
26040;SDS011;13816;53.628;9.950;2024-03-02T11:44:47;17.57;;;12.00;;
26040;SDS011;13816;53.628;9.950;2024-03-02T11:47:16;18.57;;;11.93;;
26040;SDS011;13816;53.628;9.950;2024-03-02T11:49:50;14.50;;;11.57;;
26040;SDS011;13816;53.628;9.950;2024-03-02T11:52:18;15.43;;;11.30;;
26040;SDS011;13816;53.628;9.950;2024-03-02T11:54:46;15.80;;;12.33;;
26040;SDS011;13816;53.628;9.950;2024-03-02T11:57:16;19.63;;;10.83;;
26040;SDS011;13816;53.628;9.950;2024-03-02T11:59:44;15.63;;;10.77;;
26040;SDS011;13816;53.628;9.950;2024-03-02T12:02:15;14.30;;;9.77;;
26040;SDS011;13816;53.628;9.950;2024-03-02T12:04:43;13.57;;;10.40;;
26040;SDS011;13816;53.628;9.950;2024-03-02T12:07:11;13.93;;;11.30;;
26040;SDS011;13816;53.628;9.950;2024-03-02T12:09:41;14.93;;;11.40;;
26040;SDS011;13816;53.628;9.950;2024-03-02T12:12:09;13.50;;;9.90;;
26040;SDS011;13816;53.628;9.950;2024-03-02T12:14:37;16.53;;;10.27;;
26040;SDS011;13816;53.628;9.950;2024-03-02T12:17:05;13.30;;;9.40;;
26040;SDS011;13816;53.628;9.950;2024-03-02T12:19:33;14.67;;;9.70;;
26040;SDS011;13816;53.628;9.950;2024-03-02T12:22:00;13.00;;;9.97;;
26040;SDS011;13816;53.628;9.950;2024-03-02T12:24:28;18.30;;;10.77;;
26040;SDS011;13816;53.628;9.950;2024-03-02T12:26:56;12.47;;;9.43;;
26040;SDS011;13816;53.628;9.950;2024-03-02T12:29:24;11.63;;;9.27;;
26040;SDS011;13816;53.628;9.950;2024-03-02T12:31:52;11.17;;;8.40;;
26040;SDS011;13816;53.628;9.950;2024-03-02T12:34:20;12.73;;;8.47;;
26040;SDS011;13816;53.628;9.950;2024-03-02T12:36:48;13.43;;;9.60;;
26040;SDS011;13816;53.628;9.950;2024-03-02T12:39:19;11.07;;;8.10;;
26040;SDS011;13816;53.628;9.950;2024-03-02T12:41:50;13.23;;;9.60;;
26040;SDS011;13816;53.628;9.950;2024-03-02T12:44:19;12.27;;;8.50;;
26040;SDS011;13816;53.628;9.950;2024-03-02T12:46:47;10.10;;;8.30;;
26040;SDS011;13816;53.628;9.950;2024-03-02T12:49:15;10.70;;;7.60;;
26040;SDS011;13816;53.628;9.950;2024-03-02T12:51:43;11.83;;;8.47;;
26040;SDS011;13816;53.628;9.950;2024-03-02T12:54:13;14.47;;;8.40;;
26040;SDS011;13816;53.628;9.950;2024-03-02T12:56:41;11.13;;;7.80;;
26040;SDS011;13816;53.628;9.950;2024-03-02T12:59:18;11.40;;;8.00;;
26040;SDS011;13816;53.628;9.950;2024-03-02T13:01:54;11.53;;;8.57;;
26040;SDS011;13816;53.628;9.950;2024-03-02T13:04:24;15.53;;;9.23;;
26040;SDS011;13816;53.628;9.950;2024-03-02T13:06:52;12.93;;;7.90;;
26040;SDS011;13816;53.628;9.950;2024-03-02T13:09:38;10.40;;;8.17;;
26040;SDS011;13816;53.628;9.950;2024-03-02T13:13:02;14.57;;;7.80;;
26040;SDS011;13816;53.628;9.950;2024-03-02T13:17:14;10.87;;;8.07;;
26040;SDS011;13816;53.628;9.950;2024-03-02T13:19:59;9.60;;;7.90;;
26040;SDS011;13816;53.628;9.950;2024-03-02T13:22:57;13.67;;;9.00;;
26040;SDS011;13816;53.628;9.950;2024-03-02T13:25:33;19.30;;;7.33;;
26040;SDS011;13816;53.628;9.950;2024-03-02T13:28:14;20.10;;;9.10;;
26040;SDS011;13816;53.628;9.950;2024-03-02T13:30:55;16.23;;;9.20;;
26040;SDS011;13816;53.628;9.950;2024-03-02T13:33:48;12.10;;;8.70;;
26040;SDS011;13816;53.628;9.950;2024-03-02T13:36:16;14.30;;;9.20;;
26040;SDS011;13816;53.628;9.950;2024-03-02T13:38:48;14.07;;;9.20;;
26040;SDS011;13816;53.628;9.950;2024-03-02T13:41:16;11.40;;;9.27;;
26040;SDS011;13816;53.628;9.950;2024-03-02T13:43:44;13.43;;;9.53;;
26040;SDS011;13816;53.628;9.950;2024-03-02T13:50:27;14.93;;;9.83;;
26040;SDS011;13816;53.628;9.950;2024-03-02T13:53:41;15.47;;;10.60;;
26040;SDS011;13816;53.628;9.950;2024-03-02T13:56:32;16.20;;;10.60;;
26040;SDS011;13816;53.628;9.950;2024-03-02T13:59:31;16.40;;;10.53;;
26040;SDS011;13816;53.628;9.950;2024-03-02T14:02:12;16.60;;;11.57;;
26040;SDS011;13816;53.628;9.950;2024-03-02T14:05:04;11.07;;;9.30;;
26040;SDS011;13816;53.628;9.950;2024-03-02T14:07:31;13.83;;;10.00;;
26040;SDS011;13816;53.628;9.950;2024-03-02T14:09:59;14.60;;;10.57;;
26040;SDS011;13816;53.628;9.950;2024-03-02T14:12:26;10.70;;;8.50;;
26040;SDS011;13816;53.628;9.950;2024-03-02T14:14:54;14.33;;;10.30;;
26040;SDS011;13816;53.628;9.950;2024-03-02T14:17:25;13.90;;;10.10;;
26040;SDS011;13816;53.628;9.950;2024-03-02T14:19:52;15.77;;;10.53;;
26040;SDS011;13816;53.628;9.950;2024-03-02T14:22:20;17.23;;;11.40;;
26040;SDS011;13816;53.628;9.950;2024-03-02T14:24:48;16.70;;;9.67;;
26040;SDS011;13816;53.628;9.950;2024-03-02T14:27:15;12.20;;;9.87;;
26040;SDS011;13816;53.628;9.950;2024-03-02T14:29:50;14.73;;;9.93;;
26040;SDS011;13816;53.628;9.950;2024-03-02T14:32:18;15.10;;;10.37;;
26040;SDS011;13816;53.628;9.950;2024-03-02T14:34:45;13.33;;;10.77;;
26040;SDS011;13816;53.628;9.950;2024-03-02T14:37:14;13.43;;;10.80;;
26040;SDS011;13816;53.628;9.950;2024-03-02T14:39:42;16.40;;;10.90;;
26040;SDS011;13816;53.628;9.950;2024-03-02T14:42:09;16.23;;;11.03;;
26040;SDS011;13816;53.628;9.950;2024-03-02T14:44:37;15.53;;;10.10;;
26040;SDS011;13816;53.628;9.950;2024-03-02T14:47:04;16.27;;;10.87;;
26040;SDS011;13816;53.628;9.950;2024-03-02T14:49:33;15.23;;;10.07;;
26040;SDS011;13816;53.628;9.950;2024-03-02T14:52:03;13.13;;;10.80;;